Schedule Details


Flight Number: CTN451
Departure: Schiphol (EHAM) at 11:20
Arrival: Franjo Tudman (LDZA) at 13:10
Route: EDUPO UZ738 NAPRO Z739 DEPAD UZ738 MISGO UZ741 GMH UL603 LATLO DCT BERTA DCT ARGOM

Weather Information
EHAM 172355Z 02004KT CAVOK 19/17 Q1014 TEMPO SCT008
LDZA 172300Z 00000KT CAVOK 18/15 Q1017 NOSIG
Schedule Frequency

Route Map